Time;durP1;ratioP1;P1;durP2;ratioP2;P2;SDS_P1;SDS_P2;PMS_P1;PMS_P2;Temp;Humidity;BMP_temperature;BMP_pressure;BME280_temperature;BME280_humidity;BME280_pressure;Samples;Min_cycle;Max_cycle;Signal;HPM_P1;HPM_P2
2022/04/03 00:01:23;;;;;;;0.20;0.20;;;;;;;;;;4973607;28;20205;-66
2022/04/03 00:03:50;;;;;;;0.20;0.20;;;;;;;;;;4994891;28;20256;-66
2022/04/03 00:06:17;;;;;;;0.30;0.30;;;;;;;;;;4976504;28;20689;-66
2022/04/03 00:08:44;;;;;;;0.20;0.20;;;;;;;;;;4998953;28;20209;-66
2022/04/03 00:11:12;;;;;;;0.20;0.20;;;;;;;;;;4978765;28;20256;-66
2022/04/03 00:13:41;;;;;;;0.30;0.30;;;;;;;;;;4997616;28;20240;-67
2022/04/03 00:16:09;;;;;;;0.20;0.20;;;;;;;;;;4982334;28;20209;-66
2022/04/03 00:18:36;;;;;;;0.30;0.30;;;;;;;;;;4982311;28;20194;-66
2022/04/03 00:21:04;;;;;;;0.30;0.30;;;;;;;;;;4985406;28;20301;-66
2022/04/03 00:23:31;;;;;;;0.30;0.30;;;;;;;;;;4991516;28;20229;-66
2022/04/03 00:25:58;;;;;;;0.20;0.20;;;;;;;;;;4992499;28;20289;-67
2022/04/03 00:28:28;;;;;;;0.40;0.40;;;;;;;;;;4975828;28;20219;-66
2022/04/03 00:30:57;;;;;;;0.20;0.20;;;;;;;;;;4980457;28;20206;-67
2022/04/03 00:33:24;;;;;;;0.30;0.30;;;;;;;;;;4998159;28;20255;-66
2022/04/03 00:35:52;;;;;;;0.30;0.30;;;;;;;;;;4978451;28;20205;-66
2022/04/03 00:38:19;;;;;;;0.22;0.22;;;;;;;;;;4981837;28;20206;-66
2022/04/03 00:40:47;;;;;;;0.25;0.25;;;;;;;;;;4990632;28;20213;-66
2022/04/03 00:43:14;;;;;;;0.20;0.20;;;;;;;;;;4986789;28;20216;-66
2022/04/03 00:45:45;;;;;;;0.20;0.20;;;;;;;;;;4998557;28;20205;-67
2022/04/03 00:48:14;;;;;;;0.30;0.30;;;;;;;;;;4984550;28;20208;-66
2022/04/03 00:50:41;;;;;;;0.30;0.30;;;;;;;;;;4985867;28;20738;-66
2022/04/03 00:53:08;;;;;;;0.20;0.20;;;;;;;;;;4983548;28;20229;-66
2022/04/03 00:55:35;;;;;;;0.30;0.30;;;;;;;;;;4981455;28;20213;-66
2022/04/03 00:58:03;;;;;;;0.20;0.20;;;;;;;;;;4979066;28;20682;-67
2022/04/03 01:00:30;;;;;;;0.20;0.20;;;;;;;;;;4977255;28;20213;-66
2022/04/03 01:02:58;;;;;;;0.20;0.20;;;;;;;;;;4992970;28;20629;-66
2022/04/03 01:05:27;;;;;;;0.20;0.20;;;;;;;;;;4984836;28;20204;-67
2022/04/03 01:07:54;;;;;;;0.20;0.20;;;;;;;;;;4980710;28;20208;-67
2022/04/03 01:10:21;;;;;;;0.30;0.30;;;;;;;;;;4984610;28;20209;-66
2022/04/03 01:12:49;;;;;;;0.20;0.20;;;;;;;;;;4984094;28;20229;-66
2022/04/03 01:15:16;;;;;;;0.22;0.22;;;;;;;;;;4982252;28;20211;-66
2022/04/03 01:17:44;;;;;;;0.20;0.20;;;;;;;;;;4983097;28;20197;-66
2022/04/03 01:20:12;;;;;;;0.22;0.22;;;;;;;;;;4976858;28;20205;-66
2022/04/03 01:22:41;;;;;;;0.28;0.28;;;;;;;;;;4992473;28;20190;-66
2022/04/03 01:25:10;;;;;;;0.20;0.20;;;;;;;;;;4984394;28;20211;-65
2022/04/03 01:27:38;;;;;;;0.10;0.10;;;;;;;;;;4972756;28;20209;-66
2022/04/03 01:30:07;;;;;;;0.20;0.20;;;;;;;;;;4978040;28;20255;-66
2022/04/03 01:32:34;;;;;;;0.30;0.30;;;;;;;;;;4974840;28;20222;-66
2022/04/03 01:35:02;;;;;;;0.22;0.22;;;;;;;;;;4983345;28;20209;-67
2022/04/03 01:37:29;;;;;;;0.20;0.20;;;;;;;;;;4980358;28;20208;-66
2022/04/03 01:39:56;;;;;;;0.20;0.20;;;;;;;;;;4978618;28;20269;-67
2022/04/03 01:42:25;;;;;;;0.20;0.20;;;;;;;;;;4984552;28;20229;-67
2022/04/03 01:44:52;;;;;;;0.20;0.20;;;;;;;;;;4980834;28;20234;-66
2022/04/03 01:47:19;;;;;;;0.30;0.30;;;;;;;;;;4980440;28;20201;-67
2022/04/03 01:49:47;;;;;;;0.30;0.30;;;;;;;;;;4989904;28;20199;-67
2022/04/03 01:52:15;;;;;;;0.20;0.20;;;;;;;;;;4982529;28;20244;-67
2022/04/03 01:54:43;;;;;;;0.20;0.20;;;;;;;;;;4995186;28;20320;-67
2022/04/03 01:57:10;;;;;;;0.20;0.20;;;;;;;;;;4976332;28;20204;-66
2022/04/03 01:59:39;;;;;;;0.28;0.28;;;;;;;;;;4979984;28;20202;-66
2022/04/03 02:02:06;;;;;;;0.20;0.20;;;;;;;;;;4987529;28;20210;-67
2022/04/03 02:04:33;;;;;;;0.20;0.20;;;;;;;;;;4994955;28;20236;-66
2022/04/03 02:07:03;;;;;;;0.30;0.30;;;;;;;;;;4974672;28;20280;-66
2022/04/03 02:09:31;;;;;;;0.20;0.20;;;;;;;;;;4978985;28;20197;-67
2022/04/03 02:11:59;;;;;;;0.20;0.20;;;;;;;;;;4980947;28;20213;-66
2022/04/03 02:14:26;;;;;;;0.28;0.28;;;;;;;;;;4978142;28;20218;-67
2022/04/03 02:16:57;;;;;;;0.30;0.30;;;;;;;;;;4979042;28;20244;-67
2022/04/03 02:19:25;;;;;;;0.20;0.20;;;;;;;;;;4971821;28;20316;-67
2022/04/03 02:21:53;;;;;;;0.20;0.20;;;;;;;;;;4998710;28;20219;-67
2022/04/03 02:24:20;;;;;;;0.25;0.25;;;;;;;;;;4983569;28;20233;-67
2022/04/03 02:26:48;;;;;;;0.20;0.20;;;;;;;;;;4986417;28;20237;-67
2022/04/03 02:29:15;;;;;;;0.20;0.20;;;;;;;;;;4987203;28;20255;-67
2022/04/03 02:31:43;;;;;;;0.20;0.20;;;;;;;;;;4983093;28;20234;-67
2022/04/03 02:34:12;;;;;;;0.20;0.20;;;;;;;;;;4987280;28;20236;-67
2022/04/03 02:36:42;;;;;;;0.30;0.30;;;;;;;;;;4998308;28;20210;-67
2022/04/03 02:39:10;;;;;;;0.25;0.25;;;;;;;;;;4988215;28;20303;-66
2022/04/03 02:41:37;;;;;;;0.20;0.20;;;;;;;;;;4986995;28;20567;-67
2022/04/03 02:44:05;;;;;;;0.20;0.20;;;;;;;;;;4978733;28;20222;-67
2022/04/03 02:46:32;;;;;;;0.30;0.30;;;;;;;;;;4983016;28;20206;-67
2022/04/03 02:48:59;;;;;;;0.30;0.30;;;;;;;;;;4984200;28;20194;-67
2022/04/03 02:51:28;;;;;;;0.20;0.20;;;;;;;;;;4985586;28;20197;-67
2022/04/03 02:53:55;;;;;;;0.30;0.30;;;;;;;;;;4987301;28;20226;-67
2022/04/03 02:56:22;;;;;;;0.30;0.30;;;;;;;;;;4977604;28;20628;-67
2022/04/03 02:58:49;;;;;;;0.20;0.20;;;;;;;;;;4982813;28;20248;-67
2022/04/03 03:01:16;;;;;;;0.20;0.20;;;;;;;;;;4974946;28;20284;-67
2022/04/03 03:03:44;;;;;;;0.20;0.20;;;;;;;;;;4984201;28;20220;-67
2022/04/03 03:06:12;;;;;;;0.20;0.20;;;;;;;;;;4985800;28;20299;-67
2022/04/03 03:08:40;;;;;;;0.30;0.30;;;;;;;;;;4999053;28;20237;-67
2022/04/03 03:11:07;;;;;;;0.20;0.20;;;;;;;;;;4983511;28;20259;-67
2022/04/03 03:13:35;;;;;;;0.20;0.20;;;;;;;;;;4998031;28;20743;-67
2022/04/03 03:16:02;;;;;;;0.20;0.20;;;;;;;;;;4987490;28;20210;-66
2022/04/03 03:18:29;;;;;;;0.20;0.20;;;;;;;;;;4994176;28;20240;-67
2022/04/03 03:20:58;;;;;;;0.30;0.30;;;;;;;;;;4985581;28;20244;-66
2022/04/03 03:23:25;;;;;;;0.20;0.20;;;;;;;;;;4978466;28;20228;-67
2022/04/03 03:25:54;;;;;;;0.20;0.20;;;;;;;;;;5001886;28;20209;-67
2022/04/03 03:28:22;;;;;;;0.20;0.20;;;;;;;;;;4983075;28;20201;-67
2022/04/03 03:30:49;;;;;;;0.30;0.30;;;;;;;;;;4997157;28;20233;-66
2022/04/03 03:33:16;;;;;;;0.20;0.20;;;;;;;;;;4994182;28;20308;-67
2022/04/03 03:35:43;;;;;;;0.30;0.30;;;;;;;;;;4982039;28;20205;-66
2022/04/03 03:38:10;;;;;;;0.20;0.20;;;;;;;;;;4984044;28;20213;-67
2022/04/03 03:40:39;;;;;;;0.20;0.20;;;;;;;;;;4976748;28;20221;-66
2022/04/03 03:43:09;;;;;;;0.28;0.28;;;;;;;;;;4980610;28;20565;-66
2022/04/03 03:45:36;;;;;;;0.20;0.20;;;;;;;;;;4976384;28;20202;-66
2022/04/03 03:48:04;;;;;;;0.20;0.20;;;;;;;;;;4975525;28;20209;-66
2022/04/03 03:50:32;;;;;;;0.20;0.20;;;;;;;;;;5000074;28;20647;-66
2022/04/03 03:52:59;;;;;;;0.30;0.30;;;;;;;;;;4981931;28;20244;-66
2022/04/03 03:55:26;;;;;;;0.20;0.20;;;;;;;;;;4984333;28;20634;-67
2022/04/03 03:57:54;;;;;;;0.20;0.20;;;;;;;;;;4985108;28;20197;-67
2022/04/03 04:00:23;;;;;;;0.20;0.20;;;;;;;;;;4979374;28;20211;-66
2022/04/03 04:02:50;;;;;;;0.20;0.20;;;;;;;;;;4977894;28;20839;-67
2022/04/03 04:05:17;;;;;;;0.25;0.25;;;;;;;;;;4978616;28;20210;-67
2022/04/03 04:07:46;;;;;;;0.20;0.20;;;;;;;;;;4984966;28;20225;-66
2022/04/03 04:10:13;;;;;;;0.22;0.22;;;;;;;;;;4978911;28;20297;-67
2022/04/03 04:12:41;;;;;;;0.20;0.20;;;;;;;;;;4992834;28;20241;-66
2022/04/03 04:15:08;;;;;;;0.20;0.20;;;;;;;;;;4981986;28;20205;-67
2022/04/03 04:17:38;;;;;;;0.20;0.20;;;;;;;;;;4973289;28;20197;-67
2022/04/03 04:20:06;;;;;;;0.30;0.30;;;;;;;;;;4976019;28;20213;-66
2022/04/03 04:22:34;;;;;;;0.30;0.30;;;;;;;;;;4976510;28;20202;-66
2022/04/03 04:25:01;;;;;;;0.20;0.20;;;;;;;;;;4976243;28;20210;-67
2022/04/03 04:27:28;;;;;;;0.40;0.40;;;;;;;;;;4992121;28;20201;-66
2022/04/03 04:29:55;;;;;;;0.20;0.20;;;;;;;;;;4982380;28;20212;-67
2022/04/03 04:32:24;;;;;;;0.30;0.30;;;;;;;;;;4977860;28;20236;-66
2022/04/03 04:34:53;;;;;;;0.30;0.30;;;;;;;;;;4977629;28;20240;-67
2022/04/03 04:37:21;;;;;;;0.20;0.20;;;;;;;;;;4992948;28;20211;-67
2022/04/03 04:39:48;;;;;;;0.30;0.30;;;;;;;;;;4971066;28;20215;-67
2022/04/03 04:42:15;;;;;;;0.20;0.20;;;;;;;;;;4979325;28;20296;-66
2022/04/03 04:44:43;;;;;;;0.20;0.20;;;;;;;;;;4987891;28;20226;-67
2022/04/03 04:47:10;;;;;;;0.20;0.20;;;;;;;;;;4982918;28;20259;-66
2022/04/03 04:49:38;;;;;;;0.20;0.20;;;;;;;;;;4993349;28;20225;-67
2022/04/03 04:52:06;;;;;;;0.30;0.30;;;;;;;;;;4974685;28;20233;-66
2022/04/03 04:54:35;;;;;;;0.20;0.20;;;;;;;;;;4972356;28;20317;-67
2022/04/03 04:57:02;;;;;;;0.30;0.30;;;;;;;;;;4979479;28;20226;-66
2022/04/03 04:59:29;;;;;;;0.25;0.25;;;;;;;;;;4982851;28;20201;-67
2022/04/03 05:01:59;;;;;;;0.30;0.30;;;;;;;;;;4987232;28;20264;-67
2022/04/03 05:04:27;;;;;;;0.30;0.30;;;;;;;;;;4982554;28;20245;-66
2022/04/03 05:06:55;;;;;;;0.20;0.20;;;;;;;;;;4978689;28;20205;-66
2022/04/03 05:09:24;;;;;;;0.20;0.20;;;;;;;;;;4982766;28;20275;-67
2022/04/03 05:11:51;;;;;;;0.20;0.20;;;;;;;;;;4981682;28;20213;-66
2022/04/03 05:14:19;;;;;;;0.20;0.20;;;;;;;;;;4980085;28;20217;-67
2022/04/03 05:16:46;;;;;;;0.30;0.30;;;;;;;;;;4983631;28;20197;-66
2022/04/03 05:19:14;;;;;;;0.30;0.30;;;;;;;;;;4984445;28;20213;-67
2022/04/03 05:21:41;;;;;;;0.30;0.30;;;;;;;;;;4984514;28;20279;-66
2022/04/03 05:24:09;;;;;;;0.20;0.20;;;;;;;;;;4983374;28;20244;-66
2022/04/03 05:26:37;;;;;;;0.20;0.20;;;;;;;;;;4981340;28;20196;-67
2022/04/03 05:29:05;;;;;;;0.30;0.30;;;;;;;;;;4980926;28;20201;-67
2022/04/03 05:31:32;;;;;;;0.30;0.30;;;;;;;;;;4984148;28;20793;-66
2022/04/03 05:33:59;;;;;;;0.30;0.30;;;;;;;;;;4984672;28;20225;-66
2022/04/03 05:36:26;;;;;;;0.30;0.30;;;;;;;;;;4977959;28;20217;-66
2022/04/03 05:38:53;;;;;;;0.30;0.30;;;;;;;;;;4980840;28;20213;-66
2022/04/03 05:41:21;;;;;;;0.20;0.20;;;;;;;;;;4978547;28;20206;-67
2022/04/03 05:43:50;;;;;;;0.25;0.25;;;;;;;;;;4980461;28;20236;-66
2022/04/03 05:46:17;;;;;;;0.20;0.20;;;;;;;;;;4979550;28;20252;-66
2022/04/03 05:48:45;;;;;;;0.30;0.30;;;;;;;;;;4997673;28;20220;-67
2022/04/03 05:51:12;;;;;;;0.25;0.25;;;;;;;;;;4980602;28;20208;-67
2022/04/03 05:53:41;;;;;;;0.20;0.20;;;;;;;;;;4990772;28;20235;-66
2022/04/03 05:56:08;;;;;;;0.30;0.30;;;;;;;;;;4980245;28;20674;-67
2022/04/03 05:58:36;;;;;;;0.30;0.30;;;;;;;;;;4987718;28;20208;-67
2022/04/03 06:01:05;;;;;;;0.20;0.20;;;;;;;;;;4978390;28;20198;-67
2022/04/03 06:03:33;;;;;;;0.30;0.30;;;;;;;;;;4984331;28;20324;-67
2022/04/03 06:06:01;;;;;;;0.30;0.30;;;2.70;99.90;;;;;;4987405;28;20680;-67
2022/04/03 06:08:28;;;;;;;0.20;0.20;;;2.80;99.90;;;;;;4991593;28;20204;-67
2022/04/03 06:10:54;;;;;;;0.20;0.20;;;3.00;99.90;;;;;;5005585;28;20644;-67
2022/04/03 06:13:22;;;;;;;0.20;0.20;;;3.10;99.90;;;;;;4987872;28;20678;-67
2022/04/03 06:15:49;;;;;;;0.20;0.20;;;3.00;99.90;;;;;;4984940;28;20614;-67
2022/04/03 06:18:18;;;;;;;0.30;0.30;;;2.90;99.90;;;;;;4991281;28;20641;-67
2022/04/03 06:20:46;;;;;;;0.30;0.30;;;2.80;99.90;;;;;;4992685;28;20628;-68
2022/04/03 06:23:14;;;;;;;0.20;0.20;;;2.80;99.90;;;;;;5001204;28;20652;-69
2022/04/03 06:25:41;;;;;;;0.20;0.20;;;2.70;99.90;;;;;;5002216;28;20623;-70
2022/04/03 06:28:08;;;;;;;0.20;0.20;;;2.70;99.90;;;;;;4994729;28;20593;-67
2022/04/03 06:30:35;;;;;;;0.20;0.20;;;2.70;99.90;;;;;;4986702;28;20605;-67
2022/04/03 06:33:03;;;;;;;0.20;0.20;;;2.70;99.90;;;;;;4986542;28;20791;-67
2022/04/03 06:35:31;;;;;;;0.20;0.20;;;2.70;99.90;;;;;;4990158;28;20613;-67
2022/04/03 06:37:59;;;;;;;0.20;0.20;;;2.70;99.90;;;;;;5002913;28;20707;-67
2022/04/03 06:40:26;;;;;;;0.20;0.20;;;2.70;99.90;;;;;;4989091;28;20628;-67
2022/04/03 06:42:54;;;;;;;0.20;0.20;;;2.70;99.90;;;;;;4991515;28;20730;-67
2022/04/03 06:45:21;;;;;;;0.20;0.20;;;2.70;99.90;;;;;;4984216;28;20608;-67
2022/04/03 06:47:47;;;;;;;0.20;0.20;;;2.70;99.90;;;;;;5002181;28;20636;-67
2022/04/03 06:50:14;;;;;;;0.20;0.20;;;2.80;99.90;;;;;;4995342;28;20632;-67
2022/04/03 06:52:43;;;;;;;0.20;0.20;;;2.80;99.90;;;;;;4998565;28;20657;-67
2022/04/03 06:55:10;;;;;;;0.20;0.20;;;2.80;99.90;;;;;;4981932;28;21725;-66
2022/04/03 06:57:37;;;;;;;0.20;0.20;;;2.70;99.90;;;;;;4987013;28;20615;-66
2022/04/03 07:00:06;;;;;;;0.20;0.20;;;2.70;99.90;;;;;;4983623;28;20624;-67
2022/04/03 07:02:33;;;;;;;0.27;0.27;;;2.60;99.90;;;;;;4980801;28;20647;-67
2022/04/03 07:05:00;;;;;;;0.20;0.20;;;2.70;99.90;;;;;;4985491;28;20703;-66
2022/04/03 07:07:27;;;;;;;0.20;0.20;;;2.90;99.90;;;;;;4985376;28;20629;-66
2022/04/03 07:09:55;;;;;;;0.23;0.23;;;3.10;99.90;;;;;;5000784;28;20620;-66
2022/04/03 07:12:23;;;;;;;0.20;0.20;;;3.40;99.90;;;;;;4980494;28;20692;-66
2022/04/03 07:14:50;;;;;;;0.20;0.20;;;3.80;99.90;;;;;;4982122;28;20668;-66
2022/04/03 07:17:17;;;;;;;0.10;0.10;;;3.90;99.90;;;;;;4983452;28;20718;-66
2022/04/03 07:19:45;;;;;;;0.20;0.20;;;4.10;99.90;;;;;;4992264;28;20639;-66
2022/04/03 07:22:12;;;;;;;0.23;0.23;;;4.10;99.90;;;;;;4984152;28;20667;-66
2022/04/03 07:24:39;;;;;;;0.20;0.20;;;4.30;99.90;;;;;;4996485;28;20664;-66
2022/04/03 07:27:07;;;;;;;0.20;0.20;;;5.00;99.90;;;;;;4974697;28;20636;-66
2022/04/03 07:29:34;;;;;;;0.20;0.20;;;5.00;99.90;;;;;;4984795;28;20613;-66
2022/04/03 07:32:01;;;;;;;0.20;0.20;;;;;;;;;;4986357;28;20696;-66
2022/04/03 07:34:29;;;;;;;0.20;0.20;;;;;;;;;;4985051;28;20668;-66
2022/04/03 07:36:56;;;;;;;0.20;0.20;;;;;;;;;;4982813;28;20683;-66
2022/04/03 07:39:24;;;;;;;0.20;0.20;;;;;;;;;;4987246;28;20695;-66
2022/04/03 07:41:51;;;;;;;0.30;0.30;;;6.30;99.90;;;;;;5002682;28;20628;-66
2022/04/03 07:44:19;;;;;;;0.20;0.20;;;;;;;;;;4982049;28;20644;-67
2022/04/03 07:46:46;;;;;;;0.20;0.20;;;6.50;99.90;;;;;;4986502;28;20686;-67
2022/04/03 07:49:13;;;;;;;0.20;0.20;;;6.90;99.90;;;;;;4986035;28;20674;-67
2022/04/03 07:51:40;;;;;;;0.10;0.10;;;7.10;99.90;;;;;;4995304;28;20633;-66
2022/04/03 07:54:08;;;;;;;0.20;0.20;;;;;;;;;;5000038;28;20676;-66
2022/04/03 07:56:37;;;;;;;0.20;0.20;;;;;;;;;;4984364;28;20671;-67
2022/04/03 07:59:06;;;;;;;0.10;0.10;;;;;;;;;;4984761;28;20635;-66
2022/04/03 08:01:34;;;;;;;0.20;0.20;;;;;;;;;;4998832;28;20647;-66
2022/04/03 08:04:01;;;;;;;0.13;0.13;;;;;;;;;;5001063;28;20664;-67
2022/04/03 08:06:29;;;;;;;0.10;0.10;;;;;;;;;;4999845;28;20624;-67
2022/04/03 08:08:56;;;;;;;0.10;0.10;;;;;;;;;;4980633;28;20640;-66
2022/04/03 08:11:23;;;;;;;0.20;0.20;;;;;;;;;;4984749;28;20646;-66
2022/04/03 08:13:51;;;;;;;0.17;0.17;;;;;;;;;;4982252;28;20668;-67
2022/04/03 08:16:18;;;;;;;0.10;0.10;;;7.30;99.90;;;;;;4983240;28;20712;-67
2022/04/03 08:18:46;;;;;;;0.20;0.20;;;;;;;;;;4996992;28;20632;-66
2022/04/03 08:21:14;;;;;;;0.20;0.20;;;;;;;;;;4998781;28;20675;-66
2022/04/03 08:23:41;;;;;;;0.10;0.10;;;;;;;;;;4999952;28;20706;-66
2022/04/03 08:26:09;;;;;;;0.10;0.10;;;;;;;;;;4983245;28;20604;-67
2022/04/03 08:28:36;;;;;;;0.10;0.10;;;;;;;;;;4985542;28;20726;-66
2022/04/03 08:31:04;;;;;;;0.10;0.10;;;;;;;;;;4977522;28;20704;-66
2022/04/03 08:33:32;;;;;;;0.10;0.10;;;;;;;;;;4982109;28;20668;-67
2022/04/03 08:36:03;;;;;;;0.10;0.10;;;;;;;;;;4985550;28;20686;-66
2022/04/03 08:38:30;;;;;;;0.10;0.10;;;;;;;;;;4982321;28;20647;-66
2022/04/03 08:41:01;;;;;;;0.10;0.10;;;8.20;99.90;;;;;;4993208;28;20652;-66
2022/04/03 08:43:31;;;;;;;0.10;0.10;;;;;;;;;;4978367;28;20640;-66
2022/04/03 08:45:58;;;;;;;0.20;0.20;;;8.80;99.90;;;;;;4984271;28;20617;-66
2022/04/03 08:48:28;;;;;;;0.20;0.20;;;8.90;99.90;;;;;;4985229;28;20628;-67
2022/04/03 08:50:57;;;;;;;0.10;0.10;;;8.90;99.90;;;;;;4999740;28;20741;-67
2022/04/03 08:53:29;;;;;;;0.10;0.10;;;8.80;99.90;;;;;;4981429;28;20695;-67
2022/04/03 08:55:56;;;;;;;0.10;0.10;;;8.90;99.90;;;;;;4981389;28;20637;-68
2022/04/03 08:58:26;;;;;;;0.10;0.10;;;9.00;99.90;;;;;;4977414;28;20745;-67
2022/04/03 09:00:54;;;;;;;0.10;0.10;;;;;;;;;;4978695;28;20631;-67
2022/04/03 09:03:22;;;;;;;0.10;0.10;;;;;;;;;;4989797;28;20778;-67
2022/04/03 09:05:50;;;;;;;0.10;0.10;;;9.40;99.90;;;;;;4985614;28;20686;-67
2022/04/03 09:08:19;;;;;;;0.10;0.10;;;9.40;99.90;;;;;;4983058;28;20607;-67
2022/04/03 09:11:03;;;;;;;0.10;0.10;;;9.70;99.90;;;;;;4983103;28;20628;-66
2022/04/03 09:13:30;;;;;;;0.10;0.10;;;9.70;99.90;;;;;;4983442;28;20710;-67
2022/04/03 09:15:57;;;;;;;0.10;0.10;;;9.80;99.90;;;;;;4982003;28;20633;-67
2022/04/03 09:18:24;;;;;;;0.10;0.10;;;9.70;99.90;;;;;;4982037;28;20636;-67
2022/04/03 09:20:51;;;;;;;0.10;0.10;;;9.70;99.90;;;;;;4996570;28;20636;-67
2022/04/03 09:23:20;;;;;;;0.10;0.10;;;9.40;99.90;;;;;;4997284;28;20660;-67
2022/04/03 09:25:47;;;;;;;0.10;0.10;;;9.10;99.90;;;;;;5000876;28;20675;-67
2022/04/03 09:28:15;;;;;;;0.10;0.10;;;9.20;99.90;;;;;;4982670;28;20609;-67
2022/04/03 09:30:45;;;;;;;0.10;0.10;;;9.10;99.90;;;;;;4984939;28;20645;-67
2022/04/03 09:33:15;;;;;;;0.10;0.10;;;9.10;99.90;;;;;;4998480;28;20678;-67
2022/04/03 09:35:57;;;;;;;0.10;0.10;;;9.10;99.90;;;;;;4999940;28;21060;-67
2022/04/03 09:38:25;;;;;;;0.10;0.10;;;9.00;99.90;;;;;;4982705;28;20642;-67
2022/04/03 09:40:53;;;;;;;0.10;0.10;;;8.90;99.90;;;;;;4982419;28;20694;-67
2022/04/03 09:43:22;;;;;;;0.10;0.10;;;9.10;99.90;;;;;;5001816;28;20758;-67
2022/04/03 09:45:51;;;;;;;0.10;0.10;;;9.20;99.90;;;;;;4999297;28;20625;-67
2022/04/03 09:48:27;;;;;;;0.10;0.10;;;9.30;99.90;;;;;;4981699;28;20695;-67
2022/04/03 09:50:56;;;;;;;0.10;0.10;;;9.10;99.90;;;;;;4994589;28;20668;-67
2022/04/03 09:53:23;;;;;;;0.10;0.10;;;8.80;99.90;;;;;;4975731;28;20660;-67
2022/04/03 09:55:50;;;;;;;0.10;0.10;;;8.80;99.90;;;;;;5000029;28;20665;-67
2022/04/03 09:58:17;;;;;;;0.10;0.10;;;8.70;99.90;;;;;;4979077;28;20624;-67
2022/04/03 10:00:46;;;;;;;0.20;0.20;;;9.00;99.90;;;;;;4983843;28;20628;-67
2022/04/03 10:03:14;;;;;;;0.10;0.10;;;9.40;99.90;;;;;;4987772;28;20687;-67
2022/04/03 10:05:42;;;;;;;0.10;0.10;;;;;;;;;;4995767;28;20781;-69
2022/04/03 10:08:10;;;;;;;0.00;0.00;;;;;;;;;;4982053;28;20656;-67
2022/04/03 10:10:38;;;;;;;0.10;0.10;;;;;;;;;;4976964;28;20653;-67
2022/04/03 10:13:06;;;;;;;0.10;0.10;;;;;;;;;;4984277;28;20663;-67
2022/04/03 10:15:34;;;;;;;0.10;0.10;;;;;;;;;;4995430;28;20660;-67
2022/04/03 10:18:04;;;;;;;0.10;0.10;;;;;;;;;;4981564;28;21279;-67
2022/04/03 10:20:31;;;;;;;0.10;0.10;;;;;;;;;;4982929;28;20625;-67
2022/04/03 10:23:01;;;;;;;0.10;0.10;;;;;;;;;;4993204;28;20649;-67
2022/04/03 10:25:31;;;;;;;0.10;0.10;;;;;;;;;;4981226;28;20656;-67
2022/04/03 10:28:01;;;;;;;0.10;0.10;;;;;;;;;;4974603;28;21223;-67
2022/04/03 10:30:35;;;;;;;0.10;0.10;;;;;;;;;;4981946;28;20639;-67
2022/04/03 10:33:04;;;;;;;0.20;0.20;;;;;;;;;;4990545;28;20722;-67
2022/04/03 10:35:31;;;;;;;0.10;0.10;;;;;;;;;;4982801;28;20668;-67
2022/04/03 10:38:02;;;;;;;0.10;0.10;;;;;;;;;;4982824;28;20616;-67
2022/04/03 10:40:31;;;;;;;0.20;0.20;;;;;;;;;;4984197;28;20205;-66
2022/04/03 10:43:02;;;;;;;0.10;0.10;;;;;;;;;;4984651;28;20640;-67
2022/04/03 10:45:31;;;;;;;0.10;0.10;;;;;;;;;;4984680;28;20604;-67
2022/04/03 10:48:16;;;;;;;0.10;0.10;;;;;;;;;;4982354;28;20604;-67
2022/04/03 10:50:58;;;;;;;0.10;0.10;;;;;;;;;;4995727;28;20580;-67
2022/04/03 10:53:26;;;;;;;0.10;0.10;;;;;;;;;;4984809;28;20652;-67
2022/04/03 10:55:55;;;;;;;0.10;0.10;;;;;;;;;;4986520;28;20660;-67
2022/04/03 10:58:23;;;;;;;0.10;0.10;;;;;;;;;;4985983;28;20678;-67
2022/04/03 11:00:50;;;;;;;0.10;0.10;;;;;;;;;;4984412;28;20616;-67
2022/04/03 11:03:32;;;;;;;0.10;0.10;;;;;;;;;;4988570;28;20698;-67
2022/04/03 11:06:18;;;;;;;0.10;0.10;;;;;;;;;;5001063;28;20632;-67
2022/04/03 11:08:54;;;;;;;0.10;0.10;;;;;;;;;;4987051;28;21290;-68
2022/04/03 11:11:31;;;;;;;0.10;0.10;;;;;;;;;;4982946;28;20344;-67
2022/04/03 11:13:58;;;;;;;0.10;0.10;;;;;;;;;;5001091;28;20718;-67
2022/04/03 11:16:28;;;;;;;0.10;0.10;;;;;;;;;;4984994;28;20221;-67
2022/04/03 11:18:56;;;;;;;0.10;0.10;;;;;;;;;;4984373;28;20632;-67
2022/04/03 11:21:25;;;;;;;0.10;0.10;;;;;;;;;;4998981;28;20201;-67
2022/04/03 11:23:53;;;;;;;0.10;0.10;;;;;;;;;;4984579;28;20752;-67
2022/04/03 11:26:21;;;;;;;0.10;0.10;;;;;;;;;;4985059;28;20288;-67
2022/04/03 11:28:48;;;;;;;0.10;0.10;;;;;;;;;;4986615;28;20723;-67
2022/04/03 11:31:15;;;;;;;0.10;0.10;;;;;;;;;;4980000;28;20629;-67
2022/04/03 11:33:43;;;;;;;0.10;0.10;;;;;;;;;;4984092;28;20647;-67
2022/04/03 11:36:11;;;;;;;0.10;0.10;;;;;;;;;;4979516;28;20661;-67
2022/04/03 11:38:41;;;;;;;0.10;0.10;;;;;;;;;;4987518;28;20627;-67
2022/04/03 11:41:11;;;;;;;0.10;0.10;;;;;;;;;;4977971;28;20644;-67
2022/04/03 11:43:39;;;;;;;0.10;0.10;;;;;;;;;;5000820;28;20715;-67
2022/04/03 11:46:07;;;;;;;0.17;0.17;;;;;;;;;;4982670;28;20620;-67
2022/04/03 11:48:35;;;;;;;0.10;0.10;;;;;;;;;;4977696;28;20205;-67
2022/04/03 11:51:07;;;;;;;0.10;0.10;;;;;;;;;;5000428;28;20632;-67
2022/04/03 11:53:34;;;;;;;0.10;0.10;;;;;;;;;;4993795;28;20685;-67
2022/04/03 11:56:07;;;;;;;0.10;0.10;;;;;;;;;;4982813;28;20284;-67
2022/04/03 11:58:36;;;;;;;0.10;0.10;;;;;;;;;;4987581;28;21307;-67
2022/04/03 12:01:04;;;;;;;0.10;0.10;;;;;;;;;;4983463;28;20198;-67
2022/04/03 12:03:31;;;;;;;0.10;0.10;;;;;;;;;;4996488;28;20217;-67
2022/04/03 12:06:10;;;;;;;0.10;0.10;;;;;;;;;;4975278;28;20260;-68
2022/04/03 12:08:38;;;;;;;0.10;0.10;;;;;;;;;;4980415;28;20636;-67
2022/04/03 12:11:16;;;;;;;0.10;0.10;;;;;;;;;;4984983;28;20628;-67
2022/04/03 12:13:44;;;;;;;0.10;0.10;;;;;;;;;;4999591;28;20668;-67
2022/04/03 12:16:16;;;;;;;0.10;0.10;;;;;;;;;;4978682;28;20654;-67
2022/04/03 12:18:57;;;;;;;0.20;0.20;;;;;;;;;;4997175;28;20212;-67
2022/04/03 12:21:37;;;;;;;0.10;0.10;;;;;;;;;;4977609;28;20218;-67
2022/04/03 12:24:05;;;;;;;0.07;0.07;;;;;;;;;;4997311;28;20660;-67
2022/04/03 12:26:34;;;;;;;0.10;0.10;;;;;;;;;;4992662;28;21245;-67
2022/04/03 12:29:02;;;;;;;0.10;0.10;;;;;;;;;;4992589;28;21189;-67
2022/04/03 12:31:29;;;;;;;0.00;0.00;;;;;;;;;;4980937;28;20665;-67
2022/04/03 12:34:10;;;;;;;0.10;0.10;;;;;;;;;;4992556;28;20695;-67
2022/04/03 12:36:41;;;;;;;0.10;0.10;;;;;;;;;;4981407;28;21256;-67
2022/04/03 12:39:27;;;;;;;0.10;0.10;;;;;;;;;;4983015;28;20756;-67
2022/04/03 12:41:56;;;;;;;0.10;0.10;;;;;;;;;;5000298;28;20711;-66
2022/04/03 12:44:24;;;;;;;0.10;0.10;;;;;;;;;;4983512;28;20643;-67
2022/04/03 12:46:52;;;;;;;0.10;0.10;;;;;;;;;;4992655;28;20629;-67
2022/04/03 12:49:19;;;;;;;0.10;0.10;;;;;;;;;;4970625;28;20629;-67
2022/04/03 12:51:46;;;;;;;0.20;0.20;;;;;;;;;;4976156;28;20706;-67
2022/04/03 12:54:14;;;;;;;0.10;0.10;;;;;;;;;;4980050;28;20711;-67
2022/04/03 12:59:38;;;;;;;0.10;0.10;;;9.80;99.90;;;;;;4978062;28;21244;-67
2022/04/03 13:02:06;;;;;;;0.10;0.10;;;9.90;99.90;;;;;;4995929;28;20572;-67
2022/04/03 13:04:33;;;;;;;0.10;0.10;;;9.90;99.90;;;;;;4981868;28;20225;-67
2022/04/03 13:07:00;;;;;;;0.10;0.10;;;9.80;99.90;;;;;;4985069;28;20201;-67
2022/04/03 13:09:27;;;;;;;0.10;0.10;;;9.80;99.90;;;;;;5000919;28;20633;-67
2022/04/03 13:11:55;;;;;;;0.10;0.10;;;9.80;99.90;;;;;;4978572;28;20205;-67
2022/04/03 13:14:26;;;;;;;0.10;0.10;;;9.70;99.90;;;;;;4979605;28;20221;-66
2022/04/03 13:16:57;;;;;;;0.10;0.10;;;9.60;99.90;;;;;;4980565;28;20687;-67
2022/04/03 13:19:25;;;;;;;0.10;0.10;;;9.50;99.90;;;;;;4984155;28;20571;-67
2022/04/03 13:21:54;;;;;;;0.10;0.10;;;9.50;99.90;;;;;;4996129;28;20512;-66
2022/04/03 13:24:21;;;;;;;0.10;0.10;;;9.40;99.90;;;;;;4982388;28;20656;-66
2022/04/03 13:26:50;;;;;;;0.10;0.10;;;9.40;99.90;;;;;;4979777;28;20214;-66
2022/04/03 13:29:18;;;;;;;0.10;0.10;;;9.30;99.90;;;;;;4980105;28;20204;-66
2022/04/03 13:31:46;;;;;;;0.10;0.10;;;9.50;99.90;;;;;;4982093;28;20193;-66
2022/04/03 13:34:14;;;;;;;0.10;0.10;;;9.60;99.90;;;;;;4982976;28;20252;-67
2022/04/03 13:36:42;;;;;;;0.00;0.00;;;9.70;99.90;;;;;;4980888;28;20225;-66
2022/04/03 13:39:10;;;;;;;0.10;0.10;;;9.80;99.90;;;;;;4982930;28;20211;-66
2022/04/03 13:41:39;;;;;;;0.10;0.10;;;9.70;99.90;;;;;;4993663;28;20208;-67
2022/04/03 13:44:08;;;;;;;0.10;0.10;;;9.70;99.90;;;;;;4977286;28;20218;-66
2022/04/03 13:46:35;;;;;;;0.10;0.10;;;9.60;99.90;;;;;;4980148;28;20248;-66
2022/04/03 13:49:04;;;;;;;0.10;0.10;;;9.50;99.90;;;;;;4971921;28;20641;-66
2022/04/03 13:51:32;;;;;;;0.10;0.10;;;9.40;99.90;;;;;;4996087;28;20635;-67
2022/04/03 13:54:00;;;;;;;0.10;0.10;;;9.20;99.90;;;;;;4980948;28;20256;-66
2022/04/03 13:56:27;;;;;;;0.10;0.10;;;9.10;99.90;;;;;;4981084;28;20228;-66
2022/04/03 13:58:54;;;;;;;0.10;0.10;;;8.80;99.90;;;;;;4994154;28;20272;-66
2022/04/03 14:01:21;;;;;;;0.10;0.10;;;8.80;99.90;;;;;;4979025;28;20189;-67
2022/04/03 14:03:48;;;;;;;0.10;0.10;;;8.70;99.90;;;;;;4997734;28;20652;-67
2022/04/03 14:06:16;;;;;;;0.00;0.00;;;8.70;99.90;;;;;;4985078;28;20217;-67
2022/04/03 14:08:44;;;;;;;0.10;0.10;;;8.70;99.90;;;;;;4999266;28;20201;-67
2022/04/03 14:11:11;;;;;;;0.10;0.10;;;8.60;99.90;;;;;;4979954;28;20656;-67
2022/04/03 14:13:38;;;;;;;0.10;0.10;;;8.50;99.90;;;;;;4977178;28;20249;-67
2022/04/03 14:16:06;;;;;;;0.10;0.10;;;8.40;99.90;;;;;;4983429;28;20675;-67
2022/04/03 14:18:33;;;;;;;0.10;0.10;;;8.30;99.90;;;;;;4977082;28;20644;-66